sensor_id;sensor_type;location;lat;lon;timestamp;temperature;humidity
66035;HTU21D;52805;51.074;5.842;2023-07-13T00:00:26;19.51;118.99
66035;HTU21D;52805;51.074;5.842;2023-07-13T00:02:52;19.50;118.99
66035;HTU21D;52805;51.074;5.842;2023-07-13T00:05:22;19.47;118.99
66035;HTU21D;52805;51.074;5.842;2023-07-13T00:07:51;19.46;118.99
66035;HTU21D;52805;51.074;5.842;2023-07-13T00:10:18;19.46;118.99
66035;HTU21D;52805;51.074;5.842;2023-07-13T00:12:44;19.44;118.99
66035;HTU21D;52805;51.074;5.842;2023-07-13T00:15:15;19.40;118.99
66035;HTU21D;52805;51.074;5.842;2023-07-13T00:17:42;19.36;118.99
66035;HTU21D;52805;51.074;5.842;2023-07-13T00:20:11;19.31;118.99
66035;HTU21D;52805;51.074;5.842;2023-07-13T00:22:38;19.29;118.99
66035;HTU21D;52805;51.074;5.842;2023-07-13T00:25:04;19.27;118.99
66035;HTU21D;52805;51.074;5.842;2023-07-13T00:27:31;19.22;118.99
66035;HTU21D;52805;51.074;5.842;2023-07-13T00:29:58;19.15;118.99
66035;HTU21D;52805;51.074;5.842;2023-07-13T00:32:24;19.15;118.99
66035;HTU21D;52805;51.074;5.842;2023-07-13T00:34:52;19.12;118.99
66035;HTU21D;52805;51.074;5.842;2023-07-13T00:37:18;19.12;118.99
66035;HTU21D;52805;51.074;5.842;2023-07-13T00:39:44;19.09;118.99
66035;HTU21D;52805;51.074;5.842;2023-07-13T00:42:10;19.07;118.99
66035;HTU21D;52805;51.074;5.842;2023-07-13T00:44:37;19.05;118.99
66035;HTU21D;52805;51.074;5.842;2023-07-13T00:47:04;19.02;118.99
66035;HTU21D;52805;51.074;5.842;2023-07-13T00:49:33;19.00;118.99
66035;HTU21D;52805;51.074;5.842;2023-07-13T00:52:06;19.00;118.99
66035;HTU21D;52805;51.074;5.842;2023-07-13T00:54:45;18.96;118.99
66035;HTU21D;52805;51.074;5.842;2023-07-13T00:57:16;18.93;118.99
66035;HTU21D;52805;51.074;5.842;2023-07-13T00:59:47;18.89;118.99
66035;HTU21D;52805;51.074;5.842;2023-07-13T01:02:17;18.88;118.99
66035;HTU21D;52805;51.074;5.842;2023-07-13T01:04:43;18.84;118.99
66035;HTU21D;52805;51.074;5.842;2023-07-13T01:07:11;18.82;118.99
66035;HTU21D;52805;51.074;5.842;2023-07-13T01:09:37;18.79;118.99
66035;HTU21D;52805;51.074;5.842;2023-07-13T01:12:03;18.78;118.99
66035;HTU21D;52805;51.074;5.842;2023-07-13T01:14:30;18.72;118.99
66035;HTU21D;52805;51.074;5.842;2023-07-13T01:16:56;18.69;118.99
66035;HTU21D;52805;51.074;5.842;2023-07-13T01:19:37;18.64;118.99
66035;HTU21D;52805;51.074;5.842;2023-07-13T01:22:10;18.59;118.99
66035;HTU21D;52805;51.074;5.842;2023-07-13T01:24:40;18.58;118.99
66035;HTU21D;52805;51.074;5.842;2023-07-13T01:27:07;18.54;118.99
66035;HTU21D;52805;51.074;5.842;2023-07-13T01:29:35;18.52;118.99
66035;HTU21D;52805;51.074;5.842;2023-07-13T01:32:11;18.48;118.99
66035;HTU21D;52805;51.074;5.842;2023-07-13T01:34:38;18.41;118.99
66035;HTU21D;52805;51.074;5.842;2023-07-13T01:37:12;18.36;118.99
66035;HTU21D;52805;51.074;5.842;2023-07-13T01:39:38;18.35;118.99
66035;HTU21D;52805;51.074;5.842;2023-07-13T01:42:04;18.34;118.99
66035;HTU21D;52805;51.074;5.842;2023-07-13T01:44:30;18.29;118.99
66035;HTU21D;52805;51.074;5.842;2023-07-13T01:46:56;18.27;118.99
66035;HTU21D;52805;51.074;5.842;2023-07-13T01:49:21;18.22;118.99
66035;HTU21D;52805;51.074;5.842;2023-07-13T01:51:48;18.19;118.99
66035;HTU21D;52805;51.074;5.842;2023-07-13T01:54:14;18.15;118.99
66035;HTU21D;52805;51.074;5.842;2023-07-13T01:56:40;18.14;118.99
66035;HTU21D;52805;51.074;5.842;2023-07-13T01:59:07;18.13;118.99
66035;HTU21D;52805;51.074;5.842;2023-07-13T02:01:33;18.14;118.99
66035;HTU21D;52805;51.074;5.842;2023-07-13T02:03:59;18.11;118.99
66035;HTU21D;52805;51.074;5.842;2023-07-13T02:06:26;18.13;118.99
66035;HTU21D;52805;51.074;5.842;2023-07-13T02:08:53;18.07;118.99
66035;HTU21D;52805;51.074;5.842;2023-07-13T02:11:18;18.04;118.99
66035;HTU21D;52805;51.074;5.842;2023-07-13T02:13:44;18.04;118.99
66035;HTU21D;52805;51.074;5.842;2023-07-13T02:16:10;18.03;118.99
66035;HTU21D;52805;51.074;5.842;2023-07-13T02:18:36;17.99;118.99
66035;HTU21D;52805;51.074;5.842;2023-07-13T02:21:02;17.99;118.99
66035;HTU21D;52805;51.074;5.842;2023-07-13T02:23:29;17.97;118.99
66035;HTU21D;52805;51.074;5.842;2023-07-13T02:25:56;17.94;118.99
66035;HTU21D;52805;51.074;5.842;2023-07-13T02:28:22;17.93;118.99
66035;HTU21D;52805;51.074;5.842;2023-07-13T02:30:48;17.92;118.99
66035;HTU21D;52805;51.074;5.842;2023-07-13T02:33:14;17.89;118.99
66035;HTU21D;52805;51.074;5.842;2023-07-13T02:35:40;17.87;118.99
66035;HTU21D;52805;51.074;5.842;2023-07-13T02:38:06;17.88;118.99
66035;HTU21D;52805;51.074;5.842;2023-07-13T02:40:32;17.85;118.99
66035;HTU21D;52805;51.074;5.842;2023-07-13T02:43:02;17.85;118.99
66035;HTU21D;52805;51.074;5.842;2023-07-13T02:45:30;17.82;118.99
66035;HTU21D;52805;51.074;5.842;2023-07-13T02:47:56;17.79;118.99
66035;HTU21D;52805;51.074;5.842;2023-07-13T02:50:22;17.77;118.99
66035;HTU21D;52805;51.074;5.842;2023-07-13T02:52:47;17.77;118.99
66035;HTU21D;52805;51.074;5.842;2023-07-13T02:55:13;17.79;118.99
66035;HTU21D;52805;51.074;5.842;2023-07-13T02:57:40;17.77;118.99
66035;HTU21D;52805;51.074;5.842;2023-07-13T03:00:07;17.76;118.99
66035;HTU21D;52805;51.074;5.842;2023-07-13T03:02:34;17.70;118.99
66035;HTU21D;52805;51.074;5.842;2023-07-13T03:05:01;17.69;118.99
66035;HTU21D;52805;51.074;5.842;2023-07-13T03:07:27;17.73;118.99
66035;HTU21D;52805;51.074;5.842;2023-07-13T03:09:57;17.69;118.99
66035;HTU21D;52805;51.074;5.842;2023-07-13T03:12:25;17.68;118.99
66035;HTU21D;52805;51.074;5.842;2023-07-13T03:14:51;17.64;118.99
66035;HTU21D;52805;51.074;5.842;2023-07-13T03:17:17;17.61;118.99
66035;HTU21D;52805;51.074;5.842;2023-07-13T03:19:43;17.58;118.99
66035;HTU21D;52805;51.074;5.842;2023-07-13T03:22:10;17.53;118.99
66035;HTU21D;52805;51.074;5.842;2023-07-13T03:24:38;17.49;118.99
66035;HTU21D;52805;51.074;5.842;2023-07-13T03:27:06;17.49;118.99
66035;HTU21D;52805;51.074;5.842;2023-07-13T03:29:34;17.46;118.99
66035;HTU21D;52805;51.074;5.842;2023-07-13T03:32:00;17.38;118.99
66035;HTU21D;52805;51.074;5.842;2023-07-13T03:34:27;17.36;118.99
66035;HTU21D;52805;51.074;5.842;2023-07-13T03:36:56;17.34;118.99
66035;HTU21D;52805;51.074;5.842;2023-07-13T03:39:22;17.32;118.99
66035;HTU21D;52805;51.074;5.842;2023-07-13T03:41:52;17.26;118.99
66035;HTU21D;52805;51.074;5.842;2023-07-13T03:44:18;17.30;118.99
66035;HTU21D;52805;51.074;5.842;2023-07-13T03:46:48;17.23;118.99
66035;HTU21D;52805;51.074;5.842;2023-07-13T03:49:14;17.19;118.99
66035;HTU21D;52805;51.074;5.842;2023-07-13T03:51:39;17.11;118.99
66035;HTU21D;52805;51.074;5.842;2023-07-13T03:54:05;17.10;118.99
66035;HTU21D;52805;51.074;5.842;2023-07-13T03:56:31;17.14;118.99
66035;HTU21D;52805;51.074;5.842;2023-07-13T03:58:59;17.13;118.99
66035;HTU21D;52805;51.074;5.842;2023-07-13T04:01:25;17.11;118.99
66035;HTU21D;52805;51.074;5.842;2023-07-13T04:03:52;17.13;118.99
66035;HTU21D;52805;51.074;5.842;2023-07-13T04:06:25;17.16;118.99
66035;HTU21D;52805;51.074;5.842;2023-07-13T04:08:57;17.13;118.99
66035;HTU21D;52805;51.074;5.842;2023-07-13T04:11:26;17.11;118.99
66035;HTU21D;52805;51.074;5.842;2023-07-13T04:13:52;17.11;118.99
66035;HTU21D;52805;51.074;5.842;2023-07-13T04:16:19;17.15;118.99
66035;HTU21D;52805;51.074;5.842;2023-07-13T04:18:46;17.15;118.99
66035;HTU21D;52805;51.074;5.842;2023-07-13T04:21:13;17.13;118.99
66035;HTU21D;52805;51.074;5.842;2023-07-13T04:23:40;17.17;118.99
66035;HTU21D;52805;51.074;5.842;2023-07-13T04:26:06;17.17;118.99
66035;HTU21D;52805;51.074;5.842;2023-07-13T04:28:33;17.17;118.99
66035;HTU21D;52805;51.074;5.842;2023-07-13T04:30:59;17.16;118.99
66035;HTU21D;52805;51.074;5.842;2023-07-13T04:33:26;17.16;118.99
66035;HTU21D;52805;51.074;5.842;2023-07-13T04:35:54;17.15;118.99
66035;HTU21D;52805;51.074;5.842;2023-07-13T04:38:27;17.21;118.99
66035;HTU21D;52805;51.074;5.842;2023-07-13T04:40:56;17.18;118.99
66035;HTU21D;52805;51.074;5.842;2023-07-13T04:43:22;17.18;118.99
66035;HTU21D;52805;51.074;5.842;2023-07-13T04:45:48;17.22;118.99
66035;HTU21D;52805;51.074;5.842;2023-07-13T04:48:14;17.20;118.99
66035;HTU21D;52805;51.074;5.842;2023-07-13T04:50:39;17.25;118.99
66035;HTU21D;52805;51.074;5.842;2023-07-13T04:53:05;17.29;118.99
66035;HTU21D;52805;51.074;5.842;2023-07-13T04:55:31;17.31;118.99
66035;HTU21D;52805;51.074;5.842;2023-07-13T04:57:58;17.35;118.99
66035;HTU21D;52805;51.074;5.842;2023-07-13T05:00:26;17.34;118.99
66035;HTU21D;52805;51.074;5.842;2023-07-13T05:02:57;17.38;118.99
66035;HTU21D;52805;51.074;5.842;2023-07-13T05:05:24;17.39;118.99
66035;HTU21D;52805;51.074;5.842;2023-07-13T05:07:51;17.45;118.99
66035;HTU21D;52805;51.074;5.842;2023-07-13T05:10:20;17.50;118.99
66035;HTU21D;52805;51.074;5.842;2023-07-13T05:12:45;17.58;118.99
66035;HTU21D;52805;51.074;5.842;2023-07-13T05:15:11;17.68;118.99
66035;HTU21D;52805;51.074;5.842;2023-07-13T05:17:37;17.78;118.99
66035;HTU21D;52805;51.074;5.842;2023-07-13T05:20:05;17.83;118.99
66035;HTU21D;52805;51.074;5.842;2023-07-13T05:22:31;17.94;118.99
66035;HTU21D;52805;51.074;5.842;2023-07-13T05:24:57;17.98;118.99
66035;HTU21D;52805;51.074;5.842;2023-07-13T05:27:23;18.07;118.99
66035;HTU21D;52805;51.074;5.842;2023-07-13T05:29:49;18.12;118.99
66035;HTU21D;52805;51.074;5.842;2023-07-13T05:32:14;18.15;118.99
66035;HTU21D;52805;51.074;5.842;2023-07-13T05:34:40;18.11;118.99
66035;HTU21D;52805;51.074;5.842;2023-07-13T05:37:07;18.17;118.99
66035;HTU21D;52805;51.074;5.842;2023-07-13T05:39:33;18.17;118.99
66035;HTU21D;52805;51.074;5.842;2023-07-13T05:41:58;18.19;118.99
66035;HTU21D;52805;51.074;5.842;2023-07-13T05:44:24;18.18;118.99
66035;HTU21D;52805;51.074;5.842;2023-07-13T05:46:51;18.15;118.99
66035;HTU21D;52805;51.074;5.842;2023-07-13T05:49:30;18.17;118.99
66035;HTU21D;52805;51.074;5.842;2023-07-13T05:51:56;18.20;118.99
66035;HTU21D;52805;51.074;5.842;2023-07-13T05:54:22;18.28;118.99
66035;HTU21D;52805;51.074;5.842;2023-07-13T05:56:48;18.30;118.99
66035;HTU21D;52805;51.074;5.842;2023-07-13T05:59:14;18.41;118.99
66035;HTU21D;52805;51.074;5.842;2023-07-13T06:01:39;18.47;118.99
66035;HTU21D;52805;51.074;5.842;2023-07-13T06:04:06;18.56;118.99
66035;HTU21D;52805;51.074;5.842;2023-07-13T06:06:32;18.58;118.99
66035;HTU21D;52805;51.074;5.842;2023-07-13T06:09:01;18.53;118.99
66035;HTU21D;52805;51.074;5.842;2023-07-13T06:11:27;18.54;118.99
66035;HTU21D;52805;51.074;5.842;2023-07-13T06:13:56;18.59;118.99
66035;HTU21D;52805;51.074;5.842;2023-07-13T06:16:22;18.61;118.99
66035;HTU21D;52805;51.074;5.842;2023-07-13T06:18:48;18.71;118.99
66035;HTU21D;52805;51.074;5.842;2023-07-13T06:21:19;18.76;118.99
66035;HTU21D;52805;51.074;5.842;2023-07-13T06:23:47;18.78;118.99
66035;HTU21D;52805;51.074;5.842;2023-07-13T06:26:17;18.78;118.99
66035;HTU21D;52805;51.074;5.842;2023-07-13T06:28:44;18.86;118.99
66035;HTU21D;52805;51.074;5.842;2023-07-13T06:31:12;18.89;118.99
66035;HTU21D;52805;51.074;5.842;2023-07-13T06:33:38;18.89;118.99
66035;HTU21D;52805;51.074;5.842;2023-07-13T06:36:06;18.88;118.99
66035;HTU21D;52805;51.074;5.842;2023-07-13T06:38:32;18.98;118.99
66035;HTU21D;52805;51.074;5.842;2023-07-13T06:40:57;18.93;118.99
66035;HTU21D;52805;51.074;5.842;2023-07-13T06:43:23;18.95;118.99
66035;HTU21D;52805;51.074;5.842;2023-07-13T06:45:50;19.00;118.99
66035;HTU21D;52805;51.074;5.842;2023-07-13T06:48:18;19.00;118.99
66035;HTU21D;52805;51.074;5.842;2023-07-13T06:50:44;19.00;118.99
66035;HTU21D;52805;51.074;5.842;2023-07-13T06:53:12;19.03;118.99
66035;HTU21D;52805;51.074;5.842;2023-07-13T06:55:38;19.05;118.99
66035;HTU21D;52805;51.074;5.842;2023-07-13T06:58:04;19.09;118.99
66035;HTU21D;52805;51.074;5.842;2023-07-13T07:00:30;19.12;118.99
66035;HTU21D;52805;51.074;5.842;2023-07-13T07:02:56;19.12;118.99
66035;HTU21D;52805;51.074;5.842;2023-07-13T07:05:21;19.15;118.99
66035;HTU21D;52805;51.074;5.842;2023-07-13T07:07:52;19.22;118.99
66035;HTU21D;52805;51.074;5.842;2023-07-13T07:10:18;19.20;118.99
66035;HTU21D;52805;51.074;5.842;2023-07-13T07:12:44;19.24;118.99
66035;HTU21D;52805;51.074;5.842;2023-07-13T07:15:10;19.28;118.99
66035;HTU21D;52805;51.074;5.842;2023-07-13T07:17:37;19.29;118.99
66035;HTU21D;52805;51.074;5.842;2023-07-13T07:20:03;19.28;118.99
66035;HTU21D;52805;51.074;5.842;2023-07-13T07:22:30;19.31;118.99
66035;HTU21D;52805;51.074;5.842;2023-07-13T07:24:56;19.31;118.99
66035;HTU21D;52805;51.074;5.842;2023-07-13T07:27:23;19.30;118.99
66035;HTU21D;52805;51.074;5.842;2023-07-13T07:29:50;19.37;118.99
66035;HTU21D;52805;51.074;5.842;2023-07-13T07:32:16;19.50;118.99
66035;HTU21D;52805;51.074;5.842;2023-07-13T07:34:42;19.63;118.99
66035;HTU21D;52805;51.074;5.842;2023-07-13T07:37:11;19.77;118.99
66035;HTU21D;52805;51.074;5.842;2023-07-13T07:39:37;19.89;118.99
66035;HTU21D;52805;51.074;5.842;2023-07-13T07:42:03;19.89;118.99
66035;HTU21D;52805;51.074;5.842;2023-07-13T07:44:31;19.92;118.99
66035;HTU21D;52805;51.074;5.842;2023-07-13T07:46:57;19.89;118.99
66035;HTU21D;52805;51.074;5.842;2023-07-13T07:49:23;19.89;118.99
66035;HTU21D;52805;51.074;5.842;2023-07-13T07:51:49;19.88;118.99
66035;HTU21D;52805;51.074;5.842;2023-07-13T07:54:14;19.84;118.99
66035;HTU21D;52805;51.074;5.842;2023-07-13T07:56:40;19.95;118.99
66035;HTU21D;52805;51.074;5.842;2023-07-13T07:59:06;19.94;118.99
66035;HTU21D;52805;51.074;5.842;2023-07-13T08:01:32;19.96;118.99
66035;HTU21D;52805;51.074;5.842;2023-07-13T08:03:57;19.95;118.99
66035;HTU21D;52805;51.074;5.842;2023-07-13T08:06:23;19.97;118.99
66035;HTU21D;52805;51.074;5.842;2023-07-13T08:08:50;20.01;118.99
66035;HTU21D;52805;51.074;5.842;2023-07-13T08:11:17;20.11;118.99
66035;HTU21D;52805;51.074;5.842;2023-07-13T08:13:42;20.22;118.99
66035;HTU21D;52805;51.074;5.842;2023-07-13T08:16:08;20.25;118.99
66035;HTU21D;52805;51.074;5.842;2023-07-13T08:18:34;20.36;118.99
66035;HTU21D;52805;51.074;5.842;2023-07-13T08:21:07;20.39;118.99
66035;HTU21D;52805;51.074;5.842;2023-07-13T08:23:34;20.51;118.99
66035;HTU21D;52805;51.074;5.842;2023-07-13T08:26:00;20.61;118.99
66035;HTU21D;52805;51.074;5.842;2023-07-13T08:28:27;20.62;118.99
66035;HTU21D;52805;51.074;5.842;2023-07-13T08:30:54;20.64;118.99
66035;HTU21D;52805;51.074;5.842;2023-07-13T08:33:21;20.71;118.99
66035;HTU21D;52805;51.074;5.842;2023-07-13T08:35:50;20.78;118.99
66035;HTU21D;52805;51.074;5.842;2023-07-13T08:38:17;20.88;118.99
66035;HTU21D;52805;51.074;5.842;2023-07-13T08:40:43;20.99;118.99
66035;HTU21D;52805;51.074;5.842;2023-07-13T08:43:16;21.05;118.99
66035;HTU21D;52805;51.074;5.842;2023-07-13T08:45:47;21.17;118.99
66035;HTU21D;52805;51.074;5.842;2023-07-13T08:48:25;21.32;118.99
66035;HTU21D;52805;51.074;5.842;2023-07-13T08:51:26;21.42;118.99
66035;HTU21D;52805;51.074;5.842;2023-07-13T08:54:02;21.49;118.99
66035;HTU21D;52805;51.074;5.842;2023-07-13T08:56:30;21.51;118.99
66035;HTU21D;52805;51.074;5.842;2023-07-13T08:59:00;21.52;118.99
66035;HTU21D;52805;51.074;5.842;2023-07-13T09:01:46;21.57;118.99
66035;HTU21D;52805;51.074;5.842;2023-07-13T09:04:19;21.60;118.99
66035;HTU21D;52805;51.074;5.842;2023-07-13T09:12:34;21.64;118.99
66035;HTU21D;52805;51.074;5.842;2023-07-13T09:15:04;21.72;118.99
66035;HTU21D;52805;51.074;5.842;2023-07-13T09:17:47;21.85;118.99
66035;HTU21D;52805;51.074;5.842;2023-07-13T09:22:53;22.09;118.99
66035;HTU21D;52805;51.074;5.842;2023-07-13T09:25:31;22.13;118.99
66035;HTU21D;52805;51.074;5.842;2023-07-13T09:28:05;22.11;118.99
66035;HTU21D;52805;51.074;5.842;2023-07-13T09:33:10;22.10;118.99
66035;HTU21D;52805;51.074;5.842;2023-07-13T09:35:36;22.13;118.99
66035;HTU21D;52805;51.074;5.842;2023-07-13T09:38:14;22.11;118.99
66035;HTU21D;52805;51.074;5.842;2023-07-13T09:40:59;22.25;118.99
66035;HTU21D;52805;51.074;5.842;2023-07-13T09:43:28;22.46;118.99
66035;HTU21D;52805;51.074;5.842;2023-07-13T09:45:55;22.67;118.99
66035;HTU21D;52805;51.074;5.842;2023-07-13T09:48:21;22.72;118.99
66035;HTU21D;52805;51.074;5.842;2023-07-13T09:50:47;22.71;118.99
66035;HTU21D;52805;51.074;5.842;2023-07-13T09:53:16;22.60;118.99
66035;HTU21D;52805;51.074;5.842;2023-07-13T09:55:47;22.50;118.99
66035;HTU21D;52805;51.074;5.842;2023-07-13T10:01:05;22.37;118.99
66035;HTU21D;52805;51.074;5.842;2023-07-13T10:03:35;22.35;118.99
66035;HTU21D;52805;51.074;5.842;2023-07-13T10:06:14;22.42;118.99
66035;HTU21D;52805;51.074;5.842;2023-07-13T10:08:40;22.41;118.99
66035;HTU21D;52805;51.074;5.842;2023-07-13T10:11:18;22.54;118.99
66035;HTU21D;52805;51.074;5.842;2023-07-13T10:16:24;22.92;118.99
66035;HTU21D;52805;51.074;5.842;2023-07-13T10:18:55;23.11;118.99
66035;HTU21D;52805;51.074;5.842;2023-07-13T10:21:28;23.26;118.99
66035;HTU21D;52805;51.074;5.842;2023-07-13T10:23:59;23.35;118.99
66035;HTU21D;52805;51.074;5.842;2023-07-13T10:26:32;23.43;118.99
66035;HTU21D;52805;51.074;5.842;2023-07-13T10:29:04;23.50;118.99
66035;HTU21D;52805;51.074;5.842;2023-07-13T10:31:36;23.56;118.99
66035;HTU21D;52805;51.074;5.842;2023-07-13T10:34:02;23.60;118.99
66035;HTU21D;52805;51.074;5.842;2023-07-13T10:36:43;23.68;118.99
66035;HTU21D;52805;51.074;5.842;2023-07-13T10:39:25;23.62;118.99
66035;HTU21D;52805;51.074;5.842;2023-07-13T10:42:01;23.70;118.99
66035;HTU21D;52805;51.074;5.842;2023-07-13T10:44:31;23.56;118.99
66035;HTU21D;52805;51.074;5.842;2023-07-13T10:47:02;23.50;118.99
66035;HTU21D;52805;51.074;5.842;2023-07-13T10:49:31;23.51;118.99
66035;HTU21D;52805;51.074;5.842;2023-07-13T10:51:58;23.55;118.99
66035;HTU21D;52805;51.074;5.842;2023-07-13T10:54:28;23.67;118.99
66035;HTU21D;52805;51.074;5.842;2023-07-13T10:57:16;23.79;118.99
66035;HTU21D;52805;51.074;5.842;2023-07-13T10:59:46;23.91;118.99
66035;HTU21D;52805;51.074;5.842;2023-07-13T11:02:26;23.98;118.99
66035;HTU21D;52805;51.074;5.842;2023-07-13T11:04:54;24.02;118.99
66035;HTU21D;52805;51.074;5.842;2023-07-13T11:07:29;24.15;118.99
66035;HTU21D;52805;51.074;5.842;2023-07-13T11:10:03;24.32;118.99
66035;HTU21D;52805;51.074;5.842;2023-07-13T11:12:52;24.48;118.87
66035;HTU21D;52805;51.074;5.842;2023-07-13T11:15:44;24.55;114.70
66035;HTU21D;52805;51.074;5.842;2023-07-13T11:18:21;24.54;103.09
66035;HTU21D;52805;51.074;5.842;2023-07-13T11:20:49;24.34;105.30
66035;HTU21D;52805;51.074;5.842;2023-07-13T11:25:43;24.25;98.28
66035;HTU21D;52805;51.074;5.842;2023-07-13T11:28:17;24.29;98.57
66035;HTU21D;52805;51.074;5.842;2023-07-13T11:33:48;24.42;93.66
66035;HTU21D;52805;51.074;5.842;2023-07-13T11:36:16;24.47;94.23
66035;HTU21D;52805;51.074;5.842;2023-07-13T11:38:55;24.51;94.15
66035;HTU21D;52805;51.074;5.842;2023-07-13T11:44:12;24.82;91.95
66035;HTU21D;52805;51.074;5.842;2023-07-13T11:46:38;24.75;91.88
66035;HTU21D;52805;51.074;5.842;2023-07-13T11:49:05;24.77;92.79
66035;HTU21D;52805;51.074;5.842;2023-07-13T11:51:35;24.89;86.07
66035;HTU21D;52805;51.074;5.842;2023-07-13T11:54:15;24.90;88.50
66035;HTU21D;52805;51.074;5.842;2023-07-13T11:56:44;25.12;80.84
66035;HTU21D;52805;51.074;5.842;2023-07-13T11:59:13;25.06;77.26
66035;HTU21D;52805;51.074;5.842;2023-07-13T12:01:45;25.19;73.85
66035;HTU21D;52805;51.074;5.842;2023-07-13T12:04:26;25.25;71.35
66035;HTU21D;52805;51.074;5.842;2023-07-13T12:06:58;25.36;70.13
66035;HTU21D;52805;51.074;5.842;2023-07-13T12:09:28;25.48;67.11
66035;HTU21D;52805;51.074;5.842;2023-07-13T12:11:57;25.57;67.42
66035;HTU21D;52805;51.074;5.842;2023-07-13T12:14:25;25.65;66.14
66035;HTU21D;52805;51.074;5.842;2023-07-13T12:16:53;25.72;60.45
66035;HTU21D;52805;51.074;5.842;2023-07-13T12:19:26;25.51;61.66
66035;HTU21D;52805;51.074;5.842;2023-07-13T12:21:58;25.43;62.58
66035;HTU21D;52805;51.074;5.842;2023-07-13T12:24:26;25.32;66.72
66035;HTU21D;52805;51.074;5.842;2023-07-13T12:27:03;25.34;61.07
66035;HTU21D;52805;51.074;5.842;2023-07-13T12:29:32;25.27;65.59
66035;HTU21D;52805;51.074;5.842;2023-07-13T12:31:59;25.07;67.39
66035;HTU21D;52805;51.074;5.842;2023-07-13T12:34:26;25.03;70.22
66035;HTU21D;52805;51.074;5.842;2023-07-13T12:36:54;25.02;70.42
66035;HTU21D;52805;51.074;5.842;2023-07-13T12:39:47;25.00;70.90
66035;HTU21D;52805;51.074;5.842;2023-07-13T12:42:21;25.03;68.73
66035;HTU21D;52805;51.074;5.842;2023-07-13T12:44:51;25.08;64.85
66035;HTU21D;52805;51.074;5.842;2023-07-13T12:47:20;25.14;65.12
66035;HTU21D;52805;51.074;5.842;2023-07-13T12:49:54;25.24;62.86
66035;HTU21D;52805;51.074;5.842;2023-07-13T12:52:23;25.40;60.29
66035;HTU21D;52805;51.074;5.842;2023-07-13T12:54:54;25.56;55.54
66035;HTU21D;52805;51.074;5.842;2023-07-13T12:57:22;25.48;51.49
66035;HTU21D;52805;51.074;5.842;2023-07-13T12:59:52;25.35;54.76
66035;HTU21D;52805;51.074;5.842;2023-07-13T13:02:33;25.30;58.72
66035;HTU21D;52805;51.074;5.842;2023-07-13T13:05:01;25.27;61.18
66035;HTU21D;52805;51.074;5.842;2023-07-13T13:07:29;25.13;53.17
66035;HTU21D;52805;51.074;5.842;2023-07-13T13:09:55;25.01;54.89
66035;HTU21D;52805;51.074;5.842;2023-07-13T13:12:22;25.05;58.83
66035;HTU21D;52805;51.074;5.842;2023-07-13T13:14:49;25.25;59.12
66035;HTU21D;52805;51.074;5.842;2023-07-13T13:17:25;25.35;54.26
66035;HTU21D;52805;51.074;5.842;2023-07-13T13:19:52;25.27;51.93
66035;HTU21D;52805;51.074;5.842;2023-07-13T13:22:20;25.16;53.10
66035;HTU21D;52805;51.074;5.842;2023-07-13T13:24:46;25.14;54.16
66035;HTU21D;52805;51.074;5.842;2023-07-13T13:27:21;25.02;54.83
66035;HTU21D;52805;51.074;5.842;2023-07-13T13:29:49;24.85;53.65
66035;HTU21D;52805;51.074;5.842;2023-07-13T13:32:17;24.69;52.53
66035;HTU21D;52805;51.074;5.842;2023-07-13T13:34:42;24.49;57.26
66035;HTU21D;52805;51.074;5.842;2023-07-13T13:37:22;24.40;56.32
66035;HTU21D;52805;51.074;5.842;2023-07-13T13:39:48;24.24;57.55
66035;HTU21D;52805;51.074;5.842;2023-07-13T13:42:15;24.08;59.86
66035;HTU21D;52805;51.074;5.842;2023-07-13T13:44:40;24.02;62.44
66035;HTU21D;52805;51.074;5.842;2023-07-13T13:47:26;24.05;63.97
66035;HTU21D;52805;51.074;5.842;2023-07-13T13:49:53;24.05;66.43
66035;HTU21D;52805;51.074;5.842;2023-07-13T13:52:18;24.08;67.46
66035;HTU21D;52805;51.074;5.842;2023-07-13T13:54:44;24.04;67.94
66035;HTU21D;52805;51.074;5.842;2023-07-13T13:57:10;24.01;66.56
66035;HTU21D;52805;51.074;5.842;2023-07-13T13:59:38;23.88;64.19
66035;HTU21D;52805;51.074;5.842;2023-07-13T14:02:24;23.72;75.61
66035;HTU21D;52805;51.074;5.842;2023-07-13T14:04:56;23.52;80.85
66035;HTU21D;52805;51.074;5.842;2023-07-13T14:07:22;23.22;92.68
66035;HTU21D;52805;51.074;5.842;2023-07-13T14:09:48;22.96;100.99
66035;HTU21D;52805;51.074;5.842;2023-07-13T14:12:14;22.70;114.70
66035;HTU21D;52805;51.074;5.842;2023-07-13T14:14:40;22.55;115.30
66035;HTU21D;52805;51.074;5.842;2023-07-13T14:17:20;22.43;117.92
66035;HTU21D;52805;51.074;5.842;2023-07-13T14:19:48;22.26;118.99
66035;HTU21D;52805;51.074;5.842;2023-07-13T14:22:17;22.03;118.99
66035;HTU21D;52805;51.074;5.842;2023-07-13T14:24:43;22.02;118.99
66035;HTU21D;52805;51.074;5.842;2023-07-13T14:27:11;21.88;118.99
66035;HTU21D;52805;51.074;5.842;2023-07-13T14:29:37;21.87;118.99
66035;HTU21D;52805;51.074;5.842;2023-07-13T14:32:03;21.88;118.99
66035;HTU21D;52805;51.074;5.842;2023-07-13T14:34:30;21.90;118.99
66035;HTU21D;52805;51.074;5.842;2023-07-13T14:36:56;21.87;118.99
66035;HTU21D;52805;51.074;5.842;2023-07-13T14:39:24;21.87;118.99
66035;HTU21D;52805;51.074;5.842;2023-07-13T14:41:51;21.88;118.99
66035;HTU21D;52805;51.074;5.842;2023-07-13T14:44:29;21.85;118.99
66035;HTU21D;52805;51.074;5.842;2023-07-13T14:46:58;21.82;118.99
66035;HTU21D;52805;51.074;5.842;2023-07-13T14:49:34;21.79;118.99
66035;HTU21D;52805;51.074;5.842;2023-07-13T14:52:05;21.83;118.99
66035;HTU21D;52805;51.074;5.842;2023-07-13T14:54:35;21.88;118.99
66035;HTU21D;52805;51.074;5.842;2023-07-13T14:57:00;21.95;118.99
66035;HTU21D;52805;51.074;5.842;2023-07-13T14:59:26;22.01;118.99
66035;HTU21D;52805;51.074;5.842;2023-07-13T15:01:52;22.03;118.99
66035;HTU21D;52805;51.074;5.842;2023-07-13T15:04:18;22.06;118.99
66035;HTU21D;52805;51.074;5.842;2023-07-13T15:06:58;22.11;118.99
66035;HTU21D;52805;51.074;5.842;2023-07-13T15:09:26;22.19;118.99
66035;HTU21D;52805;51.074;5.842;2023-07-13T15:11:54;22.22;118.99
66035;HTU21D;52805;51.074;5.842;2023-07-13T15:14:19;22.27;118.99
66035;HTU21D;52805;51.074;5.842;2023-07-13T15:16:49;22.37;118.99
66035;HTU21D;52805;51.074;5.842;2023-07-13T15:19:18;22.49;118.99
66035;HTU21D;52805;51.074;5.842;2023-07-13T15:21:44;22.51;118.99
66035;HTU21D;52805;51.074;5.842;2023-07-13T15:24:10;22.53;118.99
66035;HTU21D;52805;51.074;5.842;2023-07-13T15:26:37;22.57;118.99
66035;HTU21D;52805;51.074;5.842;2023-07-13T15:29:04;22.65;118.99
66035;HTU21D;52805;51.074;5.842;2023-07-13T15:31:33;22.72;118.99
66035;HTU21D;52805;51.074;5.842;2023-07-13T15:34:00;22.82;118.99
66035;HTU21D;52805;51.074;5.842;2023-07-13T15:36:26;22.98;118.99
66035;HTU21D;52805;51.074;5.842;2023-07-13T15:38:54;23.14;118.37